createdAt,value
2022-09-07T00:00:03.229Z,19.57
2022-09-07T00:01:03.217Z,19.55
2022-09-07T00:02:02.125Z,19.56
2022-09-07T00:03:02.439Z,19.53
2022-09-07T00:04:02.766Z,19.52
2022-09-07T00:05:02.532Z,19.54
2022-09-07T00:06:02.433Z,19.52
2022-09-07T00:07:02.225Z,19.51
2022-09-07T00:08:02.817Z,19.51
2022-09-07T00:09:02.329Z,19.44
2022-09-07T00:10:02.775Z,19.47
2022-09-07T00:11:02.664Z,19.43
2022-09-07T00:12:02.937Z,19.44
2022-09-07T00:13:02.761Z,19.42
2022-09-07T00:14:02.595Z,19.42
2022-09-07T00:15:03.093Z,19.44
2022-09-07T00:16:02.696Z,19.40
2022-09-07T00:17:02.839Z,19.42
2022-09-07T00:18:02.585Z,19.42
2022-09-07T00:19:03.125Z,19.45
2022-09-07T00:20:02.784Z,19.49
2022-09-07T00:21:02.601Z,19.49
2022-09-07T00:22:02.088Z,19.52
2022-09-07T00:23:02.404Z,19.56
2022-09-07T00:24:02.167Z,19.58
2022-09-07T00:25:02.144Z,19.63
2022-09-07T00:26:02.712Z,19.66
2022-09-07T00:27:02.237Z,19.69
2022-09-07T00:28:02.797Z,19.72
2022-09-07T00:29:02.672Z,19.76
2022-09-07T00:30:02.458Z,19.80
2022-09-07T00:31:02.767Z,19.84
2022-09-07T00:32:02.625Z,19.91
2022-09-07T00:33:03.471Z,19.95
2022-09-07T00:34:02.962Z,19.99
2022-09-07T00:35:02.790Z,20.00
2022-09-07T00:36:03.115Z,19.98
2022-09-07T00:37:02.960Z,20.01
2022-09-07T00:38:03.446Z,19.98
2022-09-07T00:39:02.933Z,19.87
2022-09-07T00:40:03.473Z,19.85
2022-09-07T00:41:03.030Z,19.85
2022-09-07T00:42:02.708Z,19.86
2022-09-07T00:43:02.642Z,19.87
2022-09-07T00:44:02.530Z,19.88
2022-09-07T00:45:03.132Z,19.88
2022-09-07T00:46:03.079Z,19.83
2022-09-07T00:47:02.760Z,19.85
2022-09-07T00:48:03.190Z,19.87
2022-09-07T00:49:02.987Z,19.82
2022-09-07T00:50:03.175Z,19.83
2022-09-07T00:51:02.982Z,19.84
2022-09-07T00:52:02.884Z,19.82
2022-09-07T00:53:03.337Z,19.80
2022-09-07T00:54:03.410Z,19.80
2022-09-07T00:55:03.074Z,19.80
2022-09-07T00:56:02.957Z,19.83
2022-09-07T00:57:02.627Z,19.84
2022-09-07T00:58:02.376Z,19.86
2022-09-07T00:59:02.459Z,19.88
2022-09-07T01:00:03.015Z,19.87
2022-09-07T01:01:02.628Z,19.87
2022-09-07T01:02:02.113Z,19.86
2022-09-07T01:03:02.262Z,19.87
2022-09-07T01:04:02.546Z,19.80
2022-09-07T01:05:04.482Z,19.78
2022-09-07T01:06:02.037Z,19.75
2022-09-07T01:07:02.328Z,19.72
2022-09-07T01:08:02.844Z,19.63
2022-09-07T01:09:02.958Z,19.60
2022-09-07T01:10:02.494Z,19.56
2022-09-07T01:11:02.975Z,19.54
2022-09-07T01:12:02.410Z,19.56
2022-09-07T01:13:02.234Z,19.57
2022-09-07T01:14:02.109Z,19.58
2022-09-07T01:15:02.657Z,19.60
2022-09-07T01:16:02.206Z,19.61
2022-09-07T01:17:02.893Z,19.65
2022-09-07T01:18:03.051Z,19.66
2022-09-07T01:19:02.611Z,19.67
2022-09-07T01:20:02.581Z,19.66
2022-09-07T01:21:02.991Z,19.68
2022-09-07T01:22:02.627Z,19.69
2022-09-07T01:23:02.365Z,19.70
2022-09-07T01:24:02.284Z,19.68
2022-09-07T01:25:02.231Z,19.70
2022-09-07T01:26:02.880Z,19.70
2022-09-07T01:27:03.233Z,19.70
2022-09-07T01:28:03.068Z,19.70
2022-09-07T01:29:02.976Z,19.70
2022-09-07T01:30:02.885Z,19.72
2022-09-07T01:31:03.291Z,19.74
2022-09-07T01:32:02.934Z,19.74
2022-09-07T01:33:02.874Z,19.78
2022-09-07T01:34:03.196Z,19.80
2022-09-07T01:35:02.669Z,19.83
2022-09-07T01:36:03.202Z,19.84
2022-09-07T01:37:02.594Z,19.84
2022-09-07T01:38:02.411Z,19.85
2022-09-07T01:39:02.592Z,19.84
2022-09-07T01:40:02.729Z,19.83
2022-09-07T01:41:02.455Z,19.83
2022-09-07T01:42:03.012Z,19.84
2022-09-07T01:43:02.825Z,19.84
2022-09-07T01:44:02.657Z,19.83
2022-09-07T01:45:02.814Z,19.87
2022-09-07T01:46:02.802Z,19.86
2022-09-07T01:47:03.268Z,19.84
2022-09-07T01:48:03.176Z,19.81
2022-09-07T01:49:03.328Z,19.81
2022-09-07T01:50:02.965Z,19.80
2022-09-07T01:51:02.871Z,19.78
2022-09-07T01:52:02.713Z,19.75
2022-09-07T01:53:02.734Z,19.76
2022-09-07T01:54:02.394Z,19.76
2022-09-07T01:55:02.210Z,19.76
2022-09-07T01:56:02.716Z,19.75
2022-09-07T01:57:03.225Z,19.75
2022-09-07T01:58:03.045Z,19.76
2022-09-07T01:59:03.148Z,19.73
2022-09-07T02:00:03.107Z,19.74
2022-09-07T02:01:03.221Z,19.70
2022-09-07T02:02:02.960Z,19.69
2022-09-07T02:03:02.926Z,19.67
2022-09-07T02:04:02.631Z,19.65
2022-09-07T02:05:02.472Z,19.63
2022-09-07T02:06:02.382Z,19.63
2022-09-07T02:07:02.914Z,19.60
2022-09-07T02:08:02.489Z,19.60
2022-09-07T02:09:02.513Z,19.59
2022-09-07T02:10:02.333Z,19.58
2022-09-07T02:11:02.829Z,19.57
2022-09-07T02:12:02.972Z,19.57
2022-09-07T02:13:03.013Z,19.59
2022-09-07T02:14:02.987Z,19.58
2022-09-07T02:15:02.847Z,19.57
2022-09-07T02:16:03.073Z,19.58
2022-09-07T02:17:02.691Z,19.57
2022-09-07T02:18:02.263Z,19.58
2022-09-07T02:19:02.081Z,19.58
2022-09-07T02:20:02.724Z,19.57
2022-09-07T02:21:02.321Z,19.57
2022-09-07T02:22:02.857Z,19.56
2022-09-07T02:23:02.421Z,19.53
2022-09-07T02:24:02.505Z,19.51
2022-09-07T02:25:02.363Z,19.51
2022-09-07T02:26:02.882Z,19.49
2022-09-07T02:27:02.671Z,19.49
2022-09-07T02:28:02.488Z,19.48
2022-09-07T02:29:02.367Z,19.48
2022-09-07T02:30:02.871Z,19.47
2022-09-07T02:31:02.697Z,19.47
2022-09-07T02:32:03.236Z,19.47
2022-09-07T02:33:02.814Z,19.44
2022-09-07T02:34:02.702Z,19.45
2022-09-07T02:35:02.974Z,19.47
2022-09-07T02:36:03.099Z,19.47
2022-09-07T02:37:02.137Z,19.46
2022-09-07T02:38:02.311Z,19.46
2022-09-07T02:39:02.172Z,19.45
2022-09-07T02:40:02.314Z,19.46
2022-09-07T02:41:02.080Z,19.45
2022-09-07T02:42:02.641Z,19.44
2022-09-07T02:43:03.234Z,19.41
2022-09-07T02:44:02.821Z,19.38
2022-09-07T02:45:02.655Z,19.38
2022-09-07T02:46:03.021Z,19.37
2022-09-07T02:47:02.920Z,19.38
2022-09-07T02:48:03.531Z,19.36
2022-09-07T02:49:03.105Z,19.34
2022-09-07T02:50:02.934Z,19.33
2022-09-07T02:51:03.479Z,19.31
2022-09-07T02:52:03.517Z,19.30
2022-09-07T02:53:03.409Z,19.28
2022-09-07T02:54:03.701Z,19.27
2022-09-07T02:55:03.463Z,19.24
2022-09-07T02:56:03.289Z,19.24
2022-09-07T02:57:02.203Z,19.24
2022-09-07T02:58:02.404Z,19.23
2022-09-07T02:59:02.270Z,19.21
2022-09-07T03:00:02.323Z,19.19
2022-09-07T03:01:02.279Z,19.19
2022-09-07T03:02:03.271Z,19.21
2022-09-07T03:03:03.116Z,19.23
2022-09-07T03:04:03.034Z,19.24
2022-09-07T03:05:02.847Z,19.22
2022-09-07T03:06:03.390Z,19.22
2022-09-07T03:07:02.292Z,19.19
2022-09-07T03:08:02.230Z,19.17
2022-09-07T03:09:02.376Z,19.15
2022-09-07T03:10:02.460Z,19.14
2022-09-07T03:11:02.275Z,19.12
2022-09-07T03:12:02.788Z,19.09
2022-09-07T03:13:03.423Z,19.06
2022-09-07T03:14:02.993Z,19.08
2022-09-07T03:15:03.105Z,19.08
2022-09-07T03:16:02.995Z,19.08
2022-09-07T03:17:02.978Z,19.07
2022-09-07T03:18:02.736Z,19.06
2022-09-07T03:19:02.854Z,19.08
2022-09-07T03:20:03.044Z,19.04
2022-09-07T03:21:03.318Z,19.02
2022-09-07T03:22:03.133Z,18.99
2022-09-07T03:23:02.964Z,18.98
2022-09-07T03:24:03.398Z,18.99
2022-09-07T03:25:03.013Z,18.98
2022-09-07T03:26:02.808Z,18.99
2022-09-07T03:27:02.412Z,18.98
2022-09-07T03:28:02.851Z,18.98
2022-09-07T03:29:02.434Z,18.97
2022-09-07T03:30:02.284Z,18.94
2022-09-07T03:31:02.726Z,18.92
2022-09-07T03:32:02.652Z,18.90
2022-09-07T03:33:02.475Z,18.89
2022-09-07T03:34:02.730Z,18.86
2022-09-07T03:35:02.866Z,18.83
2022-09-07T03:36:02.822Z,18.80
2022-09-07T03:37:03.354Z,18.76
2022-09-07T03:38:03.589Z,18.72
2022-09-07T03:39:03.470Z,18.70
2022-09-07T03:40:03.418Z,18.67
2022-09-07T03:41:03.313Z,18.66
2022-09-07T03:42:02.667Z,18.64
2022-09-07T03:43:03.042Z,18.62
2022-09-07T03:44:02.720Z,18.64
2022-09-07T03:45:02.549Z,18.62
2022-09-07T03:46:02.581Z,18.61
2022-09-07T03:47:03.526Z,18.60
2022-09-07T03:48:03.212Z,18.59
2022-09-07T03:49:03.121Z,18.58
2022-09-07T03:50:03.598Z,18.58
2022-09-07T03:51:03.468Z,18.57
2022-09-07T03:52:02.958Z,18.57
2022-09-07T03:53:03.177Z,18.58
2022-09-07T03:54:03.067Z,18.56
2022-09-07T03:55:03.236Z,18.53
2022-09-07T03:56:03.147Z,18.51
2022-09-07T03:57:03.030Z,18.47
2022-09-07T03:58:02.900Z,18.47
2022-09-07T03:59:03.004Z,18.45
2022-09-07T04:00:03.032Z,18.42
2022-09-07T04:01:03.182Z,18.40
2022-09-07T04:02:02.201Z,18.39
2022-09-07T04:03:02.010Z,18.37
2022-09-07T04:04:02.515Z,18.36
2022-09-07T04:05:01.839Z,18.36
2022-09-07T04:06:02.417Z,18.35
2022-09-07T04:07:02.635Z,18.33
2022-09-07T04:08:02.263Z,18.36
2022-09-07T04:09:02.895Z,18.34
2022-09-07T04:10:02.555Z,18.33
2022-09-07T04:11:02.702Z,18.31
2022-09-07T04:12:02.379Z,18.28
2022-09-07T04:13:02.225Z,18.27
2022-09-07T04:14:02.075Z,18.28
2022-09-07T04:15:01.925Z,18.28
2022-09-07T04:16:02.545Z,18.27
2022-09-07T04:17:02.924Z,18.29
2022-09-07T04:18:02.836Z,18.28
2022-09-07T04:19:02.664Z,18.25
2022-09-07T04:20:02.513Z,18.24
2022-09-07T04:21:03.062Z,18.21
2022-09-07T04:22:02.487Z,18.18
2022-09-07T04:23:02.339Z,18.17
2022-09-07T04:24:02.530Z,18.18
2022-09-07T04:25:02.146Z,18.15
2022-09-07T04:26:02.619Z,18.16
2022-09-07T04:27:02.810Z,18.15
2022-09-07T04:28:02.934Z,18.18
2022-09-07T04:29:02.594Z,18.17
2022-09-07T04:30:02.423Z,18.17
2022-09-07T04:31:03.056Z,18.15
2022-09-07T04:32:02.458Z,18.14
2022-09-07T04:33:01.926Z,18.14
2022-09-07T04:34:02.054Z,18.12
2022-09-07T04:35:01.989Z,18.09
2022-09-07T04:36:01.988Z,18.07
2022-09-07T04:37:02.711Z,18.07
2022-09-07T04:38:02.594Z,18.05
2022-09-07T04:39:02.483Z,18.00
2022-09-07T04:40:02.430Z,17.99
2022-09-07T04:41:02.394Z,17.95
2022-09-07T04:42:02.848Z,17.92
2022-09-07T04:43:02.757Z,17.89
2022-09-07T04:44:02.671Z,17.85
2022-09-07T04:45:02.343Z,17.82
2022-09-07T04:46:03.008Z,17.78
2022-09-07T04:47:03.474Z,17.76
2022-09-07T04:48:02.909Z,17.74
2022-09-07T04:49:03.483Z,17.73
2022-09-07T04:50:03.453Z,17.73
2022-09-07T04:51:05.788Z,17.72
2022-09-07T04:52:03.009Z,17.72
2022-09-07T04:53:02.486Z,17.70
2022-09-07T04:54:02.492Z,17.72
2022-09-07T04:55:02.530Z,17.71
2022-09-07T04:56:02.553Z,17.73
2022-09-07T04:57:03.186Z,17.75
2022-09-07T04:58:02.886Z,17.77
2022-09-07T04:59:02.853Z,17.77
2022-09-07T05:00:03.129Z,17.76
2022-09-07T05:01:02.720Z,17.76
2022-09-07T05:02:03.227Z,17.73
2022-09-07T05:03:03.341Z,17.69
2022-09-07T05:04:03.026Z,17.69
2022-09-07T05:05:03.101Z,17.69
2022-09-07T05:06:03.071Z,17.68
2022-09-07T05:07:03.603Z,17.66
2022-09-07T05:08:03.321Z,17.66
2022-09-07T05:09:03.139Z,17.62
2022-09-07T05:10:03.105Z,17.61
2022-09-07T05:11:03.115Z,17.59
2022-09-07T05:12:03.686Z,17.57
2022-09-07T05:13:03.719Z,17.57
2022-09-07T05:14:03.653Z,17.55
2022-09-07T05:15:03.675Z,17.54
2022-09-07T05:16:03.223Z,17.53
2022-09-07T05:17:03.882Z,17.53
2022-09-07T05:18:03.471Z,17.50
2022-09-07T05:19:03.495Z,17.45
2022-09-07T05:20:03.328Z,17.44
2022-09-07T05:21:03.253Z,17.45
2022-09-07T05:22:03.867Z,17.46
2022-09-07T05:23:03.329Z,17.49
2022-09-07T05:24:03.375Z,17.49
2022-09-07T05:25:03.406Z,17.49
2022-09-07T05:26:03.354Z,17.51
2022-09-07T05:27:03.420Z,17.52
2022-09-07T05:28:03.449Z,17.51
2022-09-07T05:30:05.002Z,17.50
2022-09-07T05:31:19.771Z,17.49
2022-09-07T05:32:02.831Z,17.47
2022-09-07T05:33:02.866Z,17.45
2022-09-07T05:35:02.986Z,17.39
2022-09-07T05:36:03.494Z,17.36
2022-09-07T05:37:03.836Z,17.37
2022-09-07T05:38:03.622Z,17.37
2022-09-07T05:39:03.640Z,17.36
2022-09-07T05:40:03.748Z,17.36
2022-09-07T05:41:03.589Z,17.37
2022-09-07T05:42:02.743Z,17.34
2022-09-07T05:43:02.887Z,17.34
2022-09-07T05:45:02.943Z,17.32
2022-09-07T05:46:03.001Z,17.31
2022-09-07T05:47:02.909Z,17.29
2022-09-07T05:48:03.476Z,17.30
2022-09-07T05:49:03.216Z,17.32
2022-09-07T05:50:03.349Z,17.35
2022-09-07T05:51:03.312Z,17.37
2022-09-07T05:52:03.324Z,17.39
2022-09-07T05:53:03.290Z,17.41
2022-09-07T05:54:03.779Z,17.43
2022-09-07T05:55:28.249Z,17.47
2022-09-07T05:56:06.996Z,17.47
2022-09-07T05:57:03.380Z,17.46
2022-09-07T05:58:03.171Z,17.46
2022-09-07T05:59:03.297Z,17.49
2022-09-07T06:00:03.192Z,17.50
2022-09-07T06:01:03.256Z,17.51
2022-09-07T06:02:02.589Z,17.52
2022-09-07T06:03:02.580Z,17.50
2022-09-07T06:04:02.842Z,17.48
2022-09-07T06:05:02.981Z,17.46
2022-09-07T06:06:02.695Z,17.44
2022-09-07T06:07:21.071Z,17.43
2022-09-07T06:08:02.495Z,17.44
2022-09-07T06:09:03.022Z,17.43
2022-09-07T06:11:02.771Z,17.46
2022-09-07T06:12:02.732Z,17.47
2022-09-07T06:13:02.716Z,17.52
2022-09-07T06:14:03.018Z,17.54
2022-09-07T06:15:03.072Z,17.59
2022-09-07T06:16:03.129Z,17.62
2022-09-07T06:17:03.126Z,17.65
2022-09-07T06:18:03.509Z,17.70
2022-09-07T06:19:03.475Z,17.73
2022-09-07T06:20:03.467Z,17.77
2022-09-07T06:21:03.035Z,17.82
2022-09-07T06:22:02.865Z,17.86
2022-09-07T06:23:02.815Z,17.93
2022-09-07T06:24:02.780Z,17.97
2022-09-07T06:25:02.785Z,18.04
2022-09-07T06:26:02.754Z,18.10
2022-09-07T06:27:02.624Z,18.18
2022-09-07T06:28:02.656Z,18.24
2022-09-07T06:29:02.695Z,18.29
2022-09-07T06:30:02.948Z,18.36
2022-09-07T06:31:02.361Z,18.41
2022-09-07T06:33:02.906Z,18.54
2022-09-07T06:34:03.046Z,18.61
2022-09-07T06:35:02.829Z,18.68
2022-09-07T06:36:02.960Z,18.72
2022-09-07T06:37:03.107Z,18.81
2022-09-07T06:38:03.032Z,18.87
2022-09-07T06:39:03.026Z,18.90
2022-09-07T06:40:03.112Z,18.95
2022-09-07T06:42:03.359Z,19.06
2022-09-07T06:43:03.052Z,19.15
2022-09-07T06:44:03.078Z,19.21
2022-09-07T06:45:03.613Z,19.28
2022-09-07T06:47:03.323Z,19.43
2022-09-07T06:48:03.061Z,19.50
2022-09-07T06:49:02.701Z,19.55
2022-09-07T06:50:02.858Z,19.61
2022-09-07T06:51:02.971Z,19.67
2022-09-07T06:52:02.696Z,19.74
2022-09-07T06:55:02.937Z,19.89
2022-09-07T06:56:02.945Z,19.93
2022-09-07T06:57:02.738Z,19.96
2022-09-07T06:58:02.759Z,20.00
2022-09-07T06:59:02.443Z,20.03
2022-09-07T07:00:02.942Z,20.07
2022-09-07T07:01:02.929Z,20.04
2022-09-07T07:02:02.789Z,20.11
2022-09-07T07:03:02.784Z,20.16
2022-09-07T07:04:02.834Z,20.22
2022-09-07T07:05:03.021Z,20.26
2022-09-07T07:06:02.660Z,20.24
2022-09-07T07:07:02.640Z,20.24
2022-09-07T07:08:02.343Z,20.30
2022-09-07T07:09:02.341Z,20.34
2022-09-07T07:10:02.325Z,20.35
2022-09-07T07:11:02.216Z,20.34
2022-09-07T07:12:02.972Z,20.37
2022-09-07T07:13:02.936Z,20.40
2022-09-07T07:14:03.001Z,20.33
2022-09-07T07:15:02.755Z,20.34
2022-09-07T07:16:02.835Z,20.34
2022-09-07T07:17:03.014Z,20.32
2022-09-07T07:18:19.732Z,20.33
2022-09-07T07:19:02.541Z,20.34
2022-09-07T07:20:02.602Z,20.35
2022-09-07T07:21:02.655Z,20.36
2022-09-07T07:22:14.421Z,20.39
2022-09-07T07:23:02.474Z,20.41
2022-09-07T07:24:07.500Z,20.46
2022-09-07T07:25:02.211Z,20.49
2022-09-07T07:26:02.252Z,20.49
2022-09-07T07:27:02.908Z,20.52
2022-09-07T07:29:03.843Z,20.56
2022-09-07T07:30:03.023Z,20.59
2022-09-07T07:31:07.183Z,20.61
2022-09-07T07:32:02.482Z,20.67
2022-09-07T07:33:01.972Z,20.74
2022-09-07T07:34:02.231Z,20.80
2022-09-07T07:35:02.277Z,20.86
2022-09-07T07:36:02.327Z,20.91
2022-09-07T07:37:02.765Z,20.94
2022-09-07T07:39:03.269Z,21.03
2022-09-07T07:40:20.447Z,21.09
2022-09-07T07:42:05.711Z,21.17
2022-09-07T07:43:03.288Z,21.26
2022-09-07T07:44:03.314Z,21.33
2022-09-07T07:46:05.627Z,21.48
2022-09-07T07:47:03.245Z,21.57
2022-09-07T07:48:03.041Z,21.62
2022-09-07T07:49:02.992Z,21.70
2022-09-07T07:51:09.834Z,21.79
2022-09-07T07:54:02.149Z,21.91
2022-09-07T07:55:42.515Z,21.98
2022-09-07T07:56:02.160Z,22.04
2022-09-07T07:57:02.869Z,22.11
2022-09-07T07:58:02.862Z,22.17
2022-09-07T07:59:02.652Z,22.18
2022-09-07T08:00:02.729Z,22.24
2022-09-07T08:01:02.885Z,22.21
2022-09-07T08:02:02.839Z,22.22
2022-09-07T08:03:03.056Z,22.22
2022-09-07T08:04:03.039Z,22.19
2022-09-07T08:05:03.081Z,22.17
2022-09-07T08:06:03.137Z,22.17
2022-09-07T08:07:07.005Z,22.14
2022-09-07T08:08:02.108Z,22.20
2022-09-07T08:09:02.255Z,22.18
2022-09-07T08:10:02.186Z,22.26
2022-09-07T08:11:02.400Z,22.31
2022-09-07T08:12:02.398Z,22.37
2022-09-07T08:13:02.467Z,22.43
2022-09-07T08:14:02.858Z,22.42
2022-09-07T08:15:02.923Z,22.50
2022-09-07T08:16:02.683Z,22.55
2022-09-07T08:17:02.667Z,22.63
2022-09-07T08:18:03.259Z,22.70
2022-09-07T08:19:02.812Z,22.79
2022-09-07T08:20:02.876Z,22.88
2022-09-07T08:21:03.071Z,22.92
2022-09-07T08:22:02.076Z,23.00
2022-09-07T08:23:02.138Z,23.10
2022-09-07T08:24:02.072Z,23.16
2022-09-07T08:25:02.120Z,23.21
2022-09-07T08:26:02.208Z,23.26
2022-09-07T08:27:02.133Z,23.29
2022-09-07T08:28:02.528Z,23.34
2022-09-07T08:29:02.117Z,23.33
2022-09-07T08:30:02.159Z,23.36
2022-09-07T08:31:02.921Z,23.37
2022-09-07T08:32:02.786Z,23.40
2022-09-07T08:33:02.854Z,23.41
2022-09-07T08:34:03.035Z,23.41
2022-09-07T08:35:02.961Z,23.42
2022-09-07T08:36:03.246Z,23.46
2022-09-07T08:37:02.812Z,23.49
2022-09-07T08:38:02.524Z,23.52
2022-09-07T08:39:02.430Z,23.56
2022-09-07T08:40:02.324Z,23.60
2022-09-07T08:41:02.473Z,23.63
2022-09-07T08:42:02.597Z,23.67
2022-09-07T08:43:02.601Z,23.71
2022-09-07T08:44:02.538Z,23.75
2022-09-07T08:45:02.911Z,23.75
2022-09-07T08:46:02.995Z,23.78
2022-09-07T08:47:03.081Z,23.77
2022-09-07T08:48:03.113Z,23.78
2022-09-07T08:49:03.003Z,23.81
2022-09-07T08:50:03.444Z,23.84
2022-09-07T08:51:03.413Z,23.90
2022-09-07T08:52:03.143Z,23.96
2022-09-07T08:53:03.482Z,24.01
2022-09-07T08:54:03.163Z,24.08
2022-09-07T08:55:03.217Z,24.12
2022-09-07T08:56:03.505Z,24.15
2022-09-07T08:58:02.766Z,24.20
2022-09-07T08:59:02.794Z,24.22
2022-09-07T09:00:02.743Z,24.25
2022-09-07T09:03:32.979Z,24.40
2022-09-07T09:04:19.442Z,24.44
2022-09-07T09:05:18.857Z,24.49
2022-09-07T09:06:02.862Z,24.54
2022-09-07T09:07:02.183Z,24.61
2022-09-07T09:08:02.327Z,24.66
2022-09-07T09:09:02.224Z,24.69
2022-09-07T09:10:02.236Z,24.74
2022-09-07T09:11:01.924Z,24.79
2022-09-07T09:12:02.644Z,24.79
2022-09-07T09:13:02.832Z,24.85
2022-09-07T09:14:02.814Z,24.89
2022-09-07T09:15:02.736Z,24.88
2022-09-07T09:16:02.668Z,24.93
2022-09-07T09:17:02.760Z,24.93
2022-09-07T09:18:02.851Z,24.93
2022-09-07T09:19:02.854Z,24.97
2022-09-07T09:20:02.844Z,25.01
2022-09-07T09:21:02.883Z,25.06
2022-09-07T09:22:02.898Z,25.09
2022-09-07T09:23:02.867Z,25.14
2022-09-07T09:24:02.930Z,25.17
2022-09-07T09:25:02.972Z,25.21
2022-09-07T09:26:03.009Z,25.25
2022-09-07T09:27:03.043Z,25.29
2022-09-07T09:28:02.957Z,25.35
2022-09-07T09:29:02.985Z,25.40
2022-09-07T09:30:03.090Z,25.44
2022-09-07T09:31:03.175Z,25.49
2022-09-07T09:32:02.657Z,25.50
2022-09-07T09:33:02.682Z,25.54
2022-09-07T09:34:02.507Z,25.57
2022-09-07T09:35:02.815Z,25.55
2022-09-07T09:36:02.666Z,25.57
2022-09-07T09:37:02.424Z,25.60
2022-09-07T09:38:02.394Z,25.64
2022-09-07T09:39:02.403Z,25.69
2022-09-07T09:40:02.953Z,25.73
2022-09-07T09:41:02.083Z,25.79
2022-09-07T09:42:02.534Z,25.86
2022-09-07T09:43:02.589Z,25.89
2022-09-07T09:44:02.528Z,25.95
2022-09-07T09:45:02.480Z,25.97
2022-09-07T09:46:17.946Z,25.93
2022-09-07T09:47:32.555Z,25.95
2022-09-07T09:48:02.639Z,25.97
2022-09-07T09:49:02.609Z,26.01
2022-09-07T09:50:02.759Z,26.05
2022-09-07T09:53:03.078Z,26.03
2022-09-07T09:54:02.841Z,26.05
2022-09-07T09:55:23.660Z,26.07
2022-09-07T09:56:02.882Z,26.06
2022-09-07T09:57:02.621Z,26.07
2022-09-07T09:59:55.044Z,26.13
2022-09-07T10:00:06.935Z,26.16
2022-09-07T10:04:06.373Z,26.13
2022-09-07T10:05:03.385Z,26.14
2022-09-07T10:06:03.467Z,26.15
2022-09-07T10:07:02.986Z,26.15
2022-09-07T10:08:02.974Z,26.16
2022-09-07T10:09:02.928Z,26.17
2022-09-07T10:10:02.982Z,26.19
2022-09-07T10:11:02.984Z,26.19
2022-09-07T10:12:07.608Z,26.19
2022-09-07T10:13:03.671Z,26.18
2022-09-07T10:14:03.376Z,26.21
2022-09-07T10:15:03.340Z,26.23
2022-09-07T10:16:03.445Z,26.21
2022-09-07T10:17:03.150Z,26.25
2022-09-07T10:18:02.766Z,26.30
2022-09-07T10:19:02.747Z,26.34
2022-09-07T10:20:02.752Z,26.37
2022-09-07T10:21:02.691Z,26.41
2022-09-07T10:22:03.402Z,26.44
2022-09-07T10:23:03.311Z,26.47
2022-09-07T10:24:03.251Z,26.48
2022-09-07T10:25:03.092Z,26.51
2022-09-07T10:26:02.952Z,26.54
2022-09-07T10:27:03.678Z,26.56
2022-09-07T10:28:03.701Z,26.58
2022-09-07T10:29:06.802Z,26.62
2022-09-07T10:30:06.606Z,26.66
2022-09-07T10:31:03.473Z,26.69
2022-09-07T10:32:03.271Z,26.74
2022-09-07T10:33:03.192Z,26.76
2022-09-07T10:35:03.219Z,26.81
2022-09-07T10:36:03.404Z,26.80
2022-09-07T10:37:03.615Z,26.81
2022-09-07T10:38:03.640Z,26.82
2022-09-07T10:39:03.374Z,26.83
2022-09-07T10:40:03.199Z,26.88
2022-09-07T10:41:03.746Z,26.90
2022-09-07T10:42:03.219Z,26.91
2022-09-07T10:44:02.990Z,26.99
2022-09-07T10:45:02.946Z,27.01
2022-09-07T10:46:02.821Z,27.04
2022-09-07T10:47:03.435Z,27.08
2022-09-07T10:48:03.184Z,27.10
2022-09-07T10:49:03.107Z,27.14
2022-09-07T10:51:12.469Z,27.20
2022-09-07T10:52:03.747Z,27.21
2022-09-07T10:53:13.576Z,27.21
2022-09-07T10:55:03.257Z,27.24
2022-09-07T10:56:03.689Z,27.25
2022-09-07T10:57:04.035Z,27.25
2022-09-07T10:58:04.064Z,27.24
2022-09-07T10:59:04.225Z,27.21
2022-09-07T11:00:10.930Z,27.19
2022-09-07T11:01:03.485Z,27.13
2022-09-07T11:02:03.108Z,27.10
2022-09-07T11:04:03.272Z,27.05
2022-09-07T11:05:03.314Z,27.03
2022-09-07T11:06:03.332Z,27.02
2022-09-07T11:07:03.710Z,27.00
2022-09-07T11:08:03.103Z,26.98
2022-09-07T11:09:19.438Z,26.94
2022-09-07T11:10:03.004Z,26.91
2022-09-07T11:11:02.808Z,26.88
2022-09-07T11:12:04.224Z,26.85
2022-09-07T11:13:02.719Z,26.82
2022-09-07T11:14:12.948Z,26.77
2022-09-07T11:15:02.672Z,26.67
2022-09-07T11:16:02.746Z,26.62
2022-09-07T11:17:02.954Z,26.60
2022-09-07T11:18:02.992Z,26.58
2022-09-07T11:20:03.442Z,26.56
2022-09-07T11:21:02.787Z,26.53
2022-09-07T11:22:02.812Z,26.51
2022-09-07T11:23:03.409Z,26.52
2022-09-07T11:24:03.369Z,26.51
2022-09-07T11:26:03.800Z,26.52
2022-09-07T11:27:03.435Z,26.52
2022-09-07T11:28:03.173Z,26.50
2022-09-07T11:30:03.093Z,26.50
2022-09-07T11:31:03.164Z,26.50
2022-09-07T11:32:03.168Z,26.49
2022-09-07T11:33:04.048Z,26.48
2022-09-07T11:35:03.647Z,26.45
2022-09-07T11:36:03.646Z,26.47
2022-09-07T11:37:03.902Z,26.46
2022-09-07T11:38:03.774Z,26.48
2022-09-07T11:39:03.761Z,26.50
2022-09-07T11:40:03.879Z,26.52
2022-09-07T11:41:03.917Z,26.54
2022-09-07T11:42:42.665Z,26.58
2022-09-07T11:43:02.929Z,26.60
2022-09-07T11:44:03.053Z,26.63
2022-09-07T11:45:03.121Z,26.70
2022-09-07T11:46:03.174Z,26.74
2022-09-07T11:47:02.874Z,26.81
2022-09-07T11:48:03.219Z,26.88
2022-09-07T11:49:04.574Z,26.93
2022-09-07T11:50:03.199Z,27.03
2022-09-07T11:51:03.201Z,27.13
2022-09-07T11:52:06.322Z,27.22
2022-09-07T11:53:03.886Z,27.29
2022-09-07T11:54:03.636Z,27.30
2022-09-07T11:55:03.723Z,27.38
2022-09-07T11:56:03.877Z,27.43
2022-09-07T11:57:03.664Z,27.50
2022-09-07T11:58:03.827Z,27.57
2022-09-07T11:59:03.876Z,27.67
2022-09-07T12:00:03.485Z,27.69
2022-09-07T12:01:03.649Z,27.76
2022-09-07T12:02:03.827Z,27.83
2022-09-07T12:03:02.893Z,27.88
2022-09-07T12:04:03.031Z,27.95
2022-09-07T12:05:02.965Z,28.00
2022-09-07T12:06:02.708Z,28.05
2022-09-07T12:07:02.582Z,28.10
2022-09-07T12:08:03.477Z,28.16
2022-09-07T12:09:03.237Z,28.18
2022-09-07T12:10:03.280Z,28.22
2022-09-07T12:11:03.306Z,28.28
2022-09-07T12:12:03.175Z,28.37
2022-09-07T12:13:02.346Z,28.44
2022-09-07T12:14:02.422Z,28.52
2022-09-07T12:15:02.457Z,28.58
2022-09-07T12:16:03.119Z,28.64
2022-09-07T12:17:02.851Z,28.69
2022-09-07T12:18:03.562Z,28.74
2022-09-07T12:19:03.189Z,28.78
2022-09-07T12:20:03.179Z,28.83
2022-09-07T12:21:03.139Z,28.82
2022-09-07T12:22:03.048Z,28.83
2022-09-07T12:23:05.145Z,28.84
2022-09-07T12:24:03.580Z,28.82
2022-09-07T12:25:03.814Z,28.83
2022-09-07T12:26:03.533Z,28.83
2022-09-07T12:27:03.481Z,28.81
2022-09-07T12:28:03.136Z,28.78
2022-09-07T12:29:02.978Z,28.72
2022-09-07T12:30:03.005Z,28.61
2022-09-07T12:31:02.805Z,28.56
2022-09-07T12:33:03.311Z,28.58
2022-09-07T12:34:03.237Z,28.62
2022-09-07T12:35:03.304Z,28.67
2022-09-07T12:36:03.355Z,28.73
2022-09-07T12:37:03.431Z,28.80
2022-09-07T12:38:04.087Z,28.86
2022-09-07T12:39:03.698Z,28.89
2022-09-07T12:40:04.001Z,28.92
2022-09-07T12:41:03.833Z,28.89
2022-09-07T12:43:09.648Z,28.99
2022-09-07T12:44:03.287Z,29.06
2022-09-07T12:45:03.086Z,29.12
2022-09-07T12:46:03.221Z,29.15
2022-09-07T12:47:03.165Z,29.21
2022-09-07T12:48:04.609Z,29.27
2022-09-07T12:49:03.177Z,29.35
2022-09-07T12:50:03.299Z,29.45
2022-09-07T12:51:03.244Z,29.56
2022-09-07T12:52:14.894Z,29.66
2022-09-07T12:53:03.604Z,29.73
2022-09-07T12:54:03.971Z,29.82
2022-09-07T12:55:26.474Z,29.91
2022-09-07T12:56:19.171Z,30.00
2022-09-07T12:58:03.315Z,30.16
2022-09-07T12:59:03.358Z,30.22
2022-09-07T13:00:03.278Z,30.18
2022-09-07T13:01:05.576Z,30.19
2022-09-07T13:02:02.938Z,30.22
2022-09-07T13:03:03.902Z,30.28
2022-09-07T13:04:02.581Z,30.33
2022-09-07T13:05:02.656Z,30.35
2022-09-07T13:06:02.808Z,30.34
2022-09-07T13:07:03.309Z,30.26
2022-09-07T13:08:08.725Z,30.20
2022-09-07T13:09:02.754Z,30.19
2022-09-07T13:10:02.897Z,30.14
2022-09-07T13:11:02.808Z,30.05
2022-09-07T13:12:03.194Z,29.99
2022-09-07T13:13:02.374Z,29.96
2022-09-07T13:14:04.502Z,29.99
2022-09-07T13:15:02.379Z,30.03
2022-09-07T13:16:03.728Z,30.08
2022-09-07T13:17:18.255Z,30.10
2022-09-07T13:18:02.715Z,30.16
2022-09-07T13:19:02.784Z,30.22
2022-09-07T13:20:02.799Z,30.30
2022-09-07T13:21:02.602Z,30.38
2022-09-07T13:22:02.577Z,30.44
2022-09-07T13:23:03.661Z,30.50
2022-09-07T13:24:45.571Z,30.47
2022-09-07T13:25:03.651Z,30.48
2022-09-07T13:26:03.721Z,30.50
2022-09-07T13:27:03.769Z,30.52
2022-09-07T13:28:02.479Z,30.51
2022-09-07T13:29:02.490Z,30.52